createdAt,value
2019-04-23T19:15:45.863Z,19.76
2019-04-23T19:17:29.123Z,19.73
2019-04-23T19:17:51.770Z,19.79
2019-04-23T19:18:56.361Z,19.79
2019-04-23T19:19:55.621Z,19.75
2019-04-23T19:22:14.345Z,19.80
2019-04-23T19:22:58.569Z,19.79
2019-04-23T19:24:51.884Z,19.75
2019-04-23T19:25:54.901Z,19.75
2019-04-23T19:27:10.829Z,19.73
2019-04-23T19:28:07.531Z,19.78
2019-04-23T19:28:55.454Z,19.78
2019-04-23T19:30:14.257Z,19.75
2019-04-23T19:32:54.452Z,19.73
2019-04-23T19:34:05.914Z,19.70
2019-04-23T19:35:04.333Z,19.76
2019-04-23T19:38:08.172Z,19.75
2019-04-23T19:39:00.199Z,19.75
2019-04-23T19:39:55.032Z,19.68
2019-04-23T19:40:55.279Z,19.76
2019-04-23T19:42:55.868Z,19.75
2019-04-23T19:44:01.318Z,19.75
2019-04-23T19:44:57.566Z,19.72
2019-04-23T19:46:02.012Z,19.69
2019-04-23T19:49:07.222Z,19.69
2019-04-23T19:50:18.072Z,19.69
2019-04-23T19:53:14.222Z,19.68
2019-04-23T19:55:12.513Z,19.65
2019-04-23T19:56:08.902Z,19.72
2019-04-23T19:56:55.162Z,19.75
2019-04-23T19:58:05.063Z,19.72
2019-04-23T19:58:56.521Z,19.65
2019-04-23T20:01:11.761Z,19.65
2019-04-23T20:02:02.077Z,19.72
2019-04-23T20:03:13.571Z,19.70
2019-04-23T20:04:07.883Z,19.63
2019-04-23T20:04:53.825Z,19.68
2019-04-23T20:06:02.939Z,19.66
2019-04-23T20:08:08.484Z,19.63
2019-04-23T20:09:24.862Z,19.57
2019-04-23T20:09:51.940Z,19.63
2019-04-23T20:10:54.547Z,19.63
2019-04-23T20:12:01.023Z,19.60
2019-04-23T20:12:51.740Z,19.61
2019-04-23T20:13:57.787Z,19.63
2019-04-23T20:17:54.503Z,19.54
2019-04-23T20:19:06.500Z,19.54
2019-04-23T20:19:57.029Z,19.54
2019-04-23T20:22:55.576Z,19.54
2019-04-23T20:24:23.705Z,19.54
2019-04-23T20:25:09.936Z,19.50
2019-04-23T20:27:06.210Z,19.53
2019-04-23T20:28:14.804Z,19.53
2019-04-23T20:33:52.860Z,19.39
2019-04-23T20:34:14.124Z,19.46
2019-04-23T20:34:59.122Z,19.50
2019-04-23T20:36:05.554Z,19.38
2019-04-23T20:39:09.121Z,19.50
2019-04-23T20:41:03.969Z,19.40
2019-04-23T20:42:57.208Z,19.47
2019-04-23T20:44:11.816Z,19.43
2019-04-23T20:46:00.082Z,19.43
2019-04-23T20:48:01.677Z,19.46
2019-04-23T20:49:00.491Z,19.43
2019-04-23T20:49:48.455Z,19.50
2019-04-23T20:50:56.259Z,19.42
2019-04-23T20:52:53.195Z,19.40
2019-04-23T20:54:07.086Z,19.47
2019-04-23T20:55:19.604Z,19.43
2019-04-23T20:57:03.877Z,19.47
2019-04-23T20:57:48.524Z,19.58
2019-04-23T20:58:59.787Z,19.53
2019-04-23T21:00:01.857Z,19.48
2019-04-23T21:01:05.102Z,19.51
2019-04-23T21:02:11.280Z,19.42
2019-04-23T21:03:55.491Z,19.40
2019-04-23T21:05:06.257Z,19.54
2019-04-23T21:06:04.419Z,19.57
2019-04-23T21:07:01.877Z,19.57
2019-04-23T21:07:57.475Z,19.54
2019-04-23T21:10:11.149Z,19.57
2019-04-23T21:10:48.910Z,19.36
2019-04-23T21:12:14.263Z,19.43
2019-04-23T21:13:05.635Z,19.36
2019-04-23T21:15:05.663Z,19.33
2019-04-23T21:15:59.681Z,19.33
2019-04-23T21:16:54.900Z,19.33
2019-04-23T21:19:10.345Z,19.39
2019-04-23T21:20:10.238Z,19.36
2019-04-23T21:22:04.372Z,19.29
2019-04-23T21:23:53.665Z,19.23
2019-04-23T21:24:56.256Z,19.29
2019-04-23T21:25:54.050Z,19.38
2019-04-23T21:27:08.230Z,19.32
2019-04-23T21:28:06.906Z,19.25
2019-04-23T21:30:12.709Z,19.23
2019-04-23T21:31:53.934Z,19.38
2019-04-23T21:33:07.219Z,19.25
2019-04-23T21:35:07.696Z,19.21
2019-04-23T21:36:12.521Z,19.39
2019-04-23T21:37:04.517Z,19.28
2019-04-23T21:38:16.425Z,19.23
2019-04-23T21:39:04.071Z,19.28
2019-04-23T21:40:18.902Z,19.20
2019-04-23T21:41:06.032Z,19.28
2019-04-23T21:44:59.245Z,19.29
2019-04-23T21:46:08.080Z,19.23
2019-04-23T21:46:56.544Z,19.32
2019-04-23T21:49:09.152Z,19.24
2019-04-23T21:50:57.551Z,19.29
2019-04-23T21:51:57.598Z,19.15
2019-04-23T21:52:54.821Z,19.21
2019-04-23T21:54:56.915Z,19.25
2019-04-23T21:56:06.944Z,19.36
2019-04-23T21:56:54.064Z,19.23
2019-04-23T21:59:04.330Z,19.31
2019-04-23T21:59:55.807Z,19.35
2019-04-23T22:01:55.799Z,19.32
2019-04-23T22:03:06.747Z,19.24
2019-04-23T22:04:17.723Z,19.25
2019-04-23T22:06:06.128Z,19.36
2019-04-23T22:06:52.808Z,19.28
2019-04-23T22:09:16.105Z,19.32
2019-04-23T22:09:59.171Z,19.18
2019-04-23T22:11:09.121Z,19.21
2019-04-23T22:12:12.185Z,19.20
2019-04-23T22:14:03.774Z,19.28
2019-04-23T22:14:11.552Z,19.33
2019-04-23T22:14:53.608Z,19.23
2019-04-23T22:16:06.001Z,19.21
2019-04-23T22:18:03.152Z,19.24
2019-04-23T22:19:10.607Z,19.23
2019-04-23T22:20:06.075Z,19.31
2019-04-23T22:21:01.095Z,19.13
2019-04-23T22:22:16.999Z,19.23
2019-04-23T22:23:05.111Z,19.20
2019-04-23T22:24:02.954Z,19.21
2019-04-23T22:24:53.031Z,19.23
2019-04-23T22:26:16.319Z,19.06
2019-04-23T22:26:53.247Z,19.02
2019-04-23T22:28:03.207Z,19.08
2019-04-23T22:29:07.261Z,19.08
2019-04-23T22:29:49.203Z,19.13
2019-04-23T22:31:08.618Z,19.11
2019-04-23T22:32:02.867Z,19.14
2019-04-23T22:33:07.158Z,19.15
2019-04-23T22:34:04.409Z,19.10
2019-04-23T22:36:06.246Z,19.06
2019-04-23T22:37:09.166Z,19.10
2019-04-23T22:38:07.489Z,18.99
2019-04-23T22:39:00.409Z,18.97
2019-04-23T22:41:05.075Z,19.06
2019-04-23T22:42:22.445Z,19.08
2019-04-23T22:44:05.382Z,19.06
2019-04-23T22:45:05.612Z,19.06
2019-04-23T22:46:00.022Z,18.94
2019-04-23T22:48:04.624Z,18.83
2019-04-23T22:49:07.853Z,18.86
2019-04-23T22:51:05.164Z,18.72
2019-04-23T22:52:05.728Z,18.79
2019-04-23T22:54:02.757Z,18.70
2019-04-23T22:55:02.379Z,18.64
2019-04-23T23:00:07.963Z,18.58
2019-04-23T23:01:02.768Z,18.50
2019-04-23T23:02:01.807Z,18.55
2019-04-23T23:03:09.801Z,18.37
2019-04-23T23:03:58.899Z,18.54
2019-04-23T23:05:09.947Z,18.43
2019-04-23T23:07:01.633Z,18.64
2019-04-23T23:08:01.492Z,18.65
2019-04-23T23:10:04.915Z,18.67
2019-04-23T23:10:57.455Z,18.79
2019-04-23T23:13:13.717Z,18.61
2019-04-23T23:14:16.741Z,18.58
2019-04-23T23:15:01.087Z,18.64
2019-04-23T23:16:01.129Z,18.68
2019-04-23T23:16:56.626Z,18.52
2019-04-23T23:18:14.383Z,18.42
2019-04-23T23:20:12.246Z,18.64
2019-04-23T23:20:59.630Z,18.50
2019-04-23T23:22:03.323Z,18.40
2019-04-23T23:23:06.151Z,18.54
2019-04-23T23:23:59.546Z,18.65
2019-04-23T23:25:06.523Z,18.49
2019-04-23T23:26:09.103Z,18.65
2019-04-23T23:27:15.450Z,18.54
2019-04-23T23:28:09.687Z,18.64
2019-04-23T23:28:55.371Z,18.61
2019-04-23T23:30:06.513Z,18.72
2019-04-23T23:31:04.083Z,18.70
2019-04-23T23:32:01.543Z,18.67
2019-04-23T23:34:00.324Z,18.42
2019-04-23T23:36:00.094Z,18.52
2019-04-23T23:37:02.189Z,18.49
2019-04-23T23:38:02.551Z,18.70
2019-04-23T23:39:05.560Z,18.70
2019-04-23T23:40:04.984Z,18.84
2019-04-23T23:41:03.953Z,18.67
2019-04-23T23:41:57.064Z,18.58
2019-04-23T23:43:23.148Z,18.55
2019-04-23T23:44:08.167Z,18.57
2019-04-23T23:45:02.172Z,18.54
2019-04-23T23:46:10.912Z,18.42
2019-04-23T23:47:04.268Z,18.31
2019-04-23T23:47:58.647Z,18.27
2019-04-23T23:48:56.046Z,18.17
2019-04-23T23:50:00.976Z,18.24
2019-04-23T23:51:06.548Z,18.10
2019-04-23T23:51:57.770Z,18.28
2019-04-23T23:53:05.893Z,18.13
2019-04-23T23:54:02.322Z,18.19
2019-04-23T23:55:03.913Z,18.06
2019-04-23T23:56:04.810Z,18.06
2019-04-23T23:57:03.781Z,18.12
2019-04-23T23:58:01.709Z,17.99
2019-04-23T23:59:09.189Z,18.03
